»·PEaware :: N739DX KWHP-KSBD

N739DX :: KWHP-KSBD

FLIGHT INFORMATION

Flight Status: Arrived
Operator: Privately registered:
United States
More flights under this callsign
Pilot: Victor R. (33153)
Aircraft: CESSNA 172 SKYHAWK
(C172)
More flights by this aircraft type
Origin: KWHP Whiteman
United States
Destination: KSBD San Bernardino Intl
United States
More flights between these airports :: More routes between these airports
Route:
File this flight plan on PilotEdge
Remarks:
Altitude:
(Current/Filed)
6,500ft
Speed:
(Current/Filed)
95kts
Departed: 11-Jan-21 03:33 PM
Arrived: 11-Jan-21 05:36 PM
Distance/Time
Traveled:
60nm/2:03
Distance/Time
To Go:
Arrived

Flight Plot

Page will automatically refresh every two minutes.

Flight plan parsing failed; only flown route is shown


Map Options




Map Legend


Flown Route
Filed Route
Departure Airport
Arrival Airport
Navaid (VOR, NDB)
Fix

Horizontal Profiles

Position Reports

Time Latitude Longitude Heading Altitude Ground
Speed
11-Jan-21 15:08 34.263992 -118.414953 321 1011ft 0kts
11-Jan-21 15:09 34.263992 -118.414953 321 1011ft 0kts
11-Jan-21 15:10 34.263992 -118.414953 321 1011ft 0kts
11-Jan-21 15:11 34.263992 -118.414953 321 1011ft 0kts
11-Jan-21 15:12 34.263992 -118.414953 321 1011ft 0kts
11-Jan-21 15:13 34.263992 -118.414953 321 1011ft 0kts
11-Jan-21 15:14 34.263992 -118.414953 321 1011ft 0kts
11-Jan-21 15:15 34.263992 -118.414953 321 1011ft 0kts
11-Jan-21 15:16 34.263992 -118.414953 321 1011ft 0kts
11-Jan-21 15:17 34.263992 -118.414953 321 1011ft 0kts
11-Jan-21 15:18 34.263992 -118.414953 321 1011ft 0kts
11-Jan-21 15:19 34.263992 -118.414953 321 1011ft 0kts
11-Jan-21 15:20 34.263992 -118.414953 321 1011ft 0kts
11-Jan-21 15:21 34.263992 -118.414953 321 1011ft 0kts
11-Jan-21 15:22 34.263992 -118.414953 321 1011ft 0kts
11-Jan-21 15:23 34.263992 -118.414953 321 1011ft 0kts
11-Jan-21 15:24 34.263992 -118.414953 321 1011ft 0kts
11-Jan-21 15:25 34.263992 -118.414953 321 1011ft 0kts
11-Jan-21 15:26 34.263992 -118.414953 321 1011ft 0kts
11-Jan-21 15:27 34.263031 -118.416615 280 1003ft 0kts
11-Jan-21 15:28 34.263572 -118.417323 311 1006ft 0kts
11-Jan-21 15:29 34.263572 -118.417323 311 1006ft 0kts
11-Jan-21 15:30 34.263572 -118.417323 311 1006ft 0kts
11-Jan-21 15:31 34.263572 -118.417323 311 1006ft 0kts
11-Jan-21 15:32 34.260363 -118.415219 130 1016ft 60kts
11-Jan-21 15:33 34.242261 -118.397663 145 1458ft 96kts
11-Jan-21 15:34 34.221676 -118.375855 133 1977ft 103kts
11-Jan-21 15:35 34.206771 -118.346703 117 2481ft 113kts
11-Jan-21 15:36 34.194368 -118.323825 128 2819ft 112kts
11-Jan-21 15:37 34.203983 -118.330494 305 2036ft 162kts
11-Jan-21 15:38 34.229250 -118.363575 317 2167ft 128kts
11-Jan-21 15:39 34.237506 -118.381800 127 1893ft 136kts
11-Jan-21 15:40 34.224119 -118.354827 354 2045ft 113kts
11-Jan-21 15:41 34.239741 -118.366661 145 2189ft 121kts
11-Jan-21 15:42 34.254782 -118.362578 318 2250ft 125kts
11-Jan-21 15:43 34.274226 -118.391253 301 2805ft 107kts
11-Jan-21 15:44 34.294147 -118.418026 324 3297ft 108kts
11-Jan-21 15:45 34.287187 -118.431047 160 2358ft 92kts
11-Jan-21 15:46 34.267366 -118.421821 136 1183ft 71kts
11-Jan-21 15:47 34.260949 -118.414581 12 993ft 0kts
11-Jan-21 15:48 34.260949 -118.414581 12 993ft 0kts
11-Jan-21 15:49 34.260949 -118.414581 12 993ft 0kts
11-Jan-21 15:50 34.261193 -118.414791 317 993ft 14kts
11-Jan-21 15:51 34.263479 -118.415493 348 1006ft 5kts
11-Jan-21 15:52 34.263553 -118.415562 307 1007ft 0kts
11-Jan-21 15:53 34.263553 -118.415562 307 1007ft 0kts
11-Jan-21 15:54 34.263553 -118.415562 307 1007ft 0kts
11-Jan-21 15:55 34.263553 -118.415562 307 1007ft 0kts
11-Jan-21 15:56 34.263553 -118.415562 307 1007ft 0kts
11-Jan-21 15:57 34.263553 -118.415562 307 1007ft 0kts
11-Jan-21 15:58 34.263553 -118.415562 307 1007ft 0kts
11-Jan-21 15:59 34.263553 -118.415562 307 1007ft 0kts
11-Jan-21 16:00 34.263553 -118.415562 307 1007ft 0kts
11-Jan-21 16:01 34.263553 -118.415562 307 1007ft 0kts
11-Jan-21 16:02 34.263553 -118.415562 307 1007ft 0kts
11-Jan-21 16:03 34.263553 -118.415562 307 1007ft 0kts
11-Jan-21 16:04 34.263589 -118.415767 251 1007ft 7kts
11-Jan-21 16:05 34.263680 -118.417445 285 1006ft 0kts
11-Jan-21 16:06 34.263680 -118.417445 285 1006ft 0kts
11-Jan-21 16:07 34.263680 -118.417445 285 1006ft 0kts
11-Jan-21 16:08 34.257629 -118.411710 139 1086ft 50kts
11-Jan-21 16:09 34.245924 -118.399308 146 1675ft 50kts
11-Jan-21 16:10 34.231604 -118.384990 129 2112ft 82kts
11-Jan-21 16:11 34.217507 -118.366725 142 2842ft 72kts
11-Jan-21 16:41 34.262641 -118.415619 129 1000ft 0kts
11-Jan-21 16:41 34.262641 -118.415619 129 1000ft 0kts
11-Jan-21 16:42 34.262641 -118.415619 129 1000ft 0kts
11-Jan-21 16:43 34.262641 -118.415619 129 1000ft 0kts
11-Jan-21 16:44 34.262641 -118.415619 129 1000ft 0kts
11-Jan-21 16:45 34.262641 -118.415619 129 1000ft 0kts
11-Jan-21 16:46 34.262641 -118.415619 129 1000ft 0kts
11-Jan-21 16:47 34.262637 -118.415614 135 1000ft 1kts
11-Jan-21 16:48 34.262778 -118.416418 315 1002ft 2kts
11-Jan-21 16:49 34.263636 -118.417382 312 1006ft 0kts
11-Jan-21 16:50 34.263636 -118.417382 312 1006ft 0kts
11-Jan-21 16:51 34.263636 -118.417382 312 1006ft 0kts
11-Jan-21 16:52 34.263636 -118.417382 312 1006ft 0kts
11-Jan-21 16:53 34.263636 -118.417382 312 1006ft 0kts
11-Jan-21 16:54 34.263636 -118.417382 312 1006ft 0kts
11-Jan-21 16:55 34.259111 -118.413269 138 1004ft 63kts
11-Jan-21 16:56 34.245465 -118.398695 139 1689ft 69kts
11-Jan-21 16:57 34.230031 -118.383522 144 2414ft 75kts
11-Jan-21 16:58 34.218014 -118.362364 105 3051ft 89kts
11-Jan-21 16:59 34.204633 -118.336845 137 3761ft 92kts
11-Jan-21 17:00 34.183542 -118.313836 129 4173ft 115kts
11-Jan-21 17:01 34.160140 -118.286653 130 4360ft 110kts
11-Jan-21 17:02 34.152629 -118.250942 94 3872ft 114kts
11-Jan-21 17:03 34.146482 -118.214535 96 3595ft 110kts
11-Jan-21 17:04 34.143938 -118.179292 97 3624ft 109kts
11-Jan-21 17:05 34.140182 -118.143990 92 3748ft 110kts
11-Jan-21 17:06 34.138686 -118.107758 97 3880ft 109kts
11-Jan-21 17:07 34.135061 -118.072185 92 4037ft 107kts
11-Jan-21 17:08 34.131913 -118.035749 92 4085ft 115kts
11-Jan-21 17:09 34.131419 -117.999158 93 4125ft 112kts
11-Jan-21 17:10 34.130468 -117.962291 88 4146ft 111kts
11-Jan-21 17:11 34.131106 -117.924416 91 4151ft 113kts
11-Jan-21 17:12 34.132489 -117.886767 83 4171ft 111kts
11-Jan-21 17:13 34.136549 -117.849370 84 4176ft 112kts
11-Jan-21 17:14 34.139249 -117.812164 94 4183ft 112kts
11-Jan-21 17:15 34.143268 -117.775446 90 4113ft 115kts
11-Jan-21 17:16 34.149460 -117.739747 92 4098ft 107kts
11-Jan-21 17:17 34.158714 -117.704114 69 4053ft 109kts
11-Jan-21 17:18 34.155347 -117.666960 82 4035ft 110kts
11-Jan-21 17:19 34.154117 -117.629297 86 4038ft 111kts
11-Jan-21 17:20 34.154265 -117.591641 99 4034ft 112kts
11-Jan-21 17:21 34.163886 -117.571895 61 3513ft 90kts
11-Jan-21 17:22 34.153867 -117.536668 108 3333ft 109kts
11-Jan-21 17:23 34.147617 -117.500794 92 3388ft 107kts
11-Jan-21 17:24 34.143652 -117.462324 98 3089ft 126kts
11-Jan-21 17:25 34.137789 -117.429988 94 3608ft 102kts
11-Jan-21 17:26 34.134271 -117.397369 94 3984ft 96kts
11-Jan-21 17:27 34.128521 -117.368237 103 4474ft 90kts
11-Jan-21 17:28 34.122429 -117.336632 119 4595ft 88kts
11-Jan-21 17:29 34.103891 -117.316412 143 3116ft 98kts
11-Jan-21 17:30 34.087065 -117.299050 108 2179ft 78kts
11-Jan-21 17:31 34.084652 -117.275725 77 1536ft 65kts
11-Jan-21 17:32 34.092694 -117.259328 39 1332ft 59kts
11-Jan-21 17:33 34.086495 -117.253233 213 1418ft 77kts
11-Jan-21 17:34 34.090391 -117.250976 65 1206ft 86kts
11-Jan-21 17:35 34.095831 -117.233300 71 1134ft 36kts
11-Jan-21 17:36 34.098977 -117.226798 28 1144ft 0kts
11-Jan-21 17:37 34.098977 -117.226798 28 1144ft 0kts
11-Jan-21 17:38 34.099813 -117.227487 274 1143ft 0kts
11-Jan-21 17:39 34.099813 -117.227487 274 1143ft 0kts
11-Jan-21 17:40 34.099813 -117.227487 274 1143ft 0kts
11-Jan-21 17:41 34.099813 -117.227487 274 1143ft 0kts
11-Jan-21 17:42 34.099813 -117.227487 274 1143ft 0kts
11-Jan-21 17:43 34.099813 -117.227487 274 1143ft 0kts
11-Jan-21 17:44 34.099813 -117.227487 274 1143ft 0kts
11-Jan-21 17:45 34.099813 -117.227487 274 1143ft 0kts
11-Jan-21 17:46 34.099813 -117.227487 274 1143ft 0kts
11-Jan-21 17:47 34.099813 -117.227487 274 1143ft 0kts
11-Jan-21 17:48 34.099813 -117.227487 274 1143ft 0kts
11-Jan-21 17:49 34.099813 -117.227487 274 1143ft 0kts

Navigation Log

Ident Type
Flight plan parsing failed, navigation log unavailable